sensor_id;sensor_type;location;lat;lon;timestamp;pressure;altitude;pressure_sealevel;temperature;humidity
60611;BME280;46439;51.164;13.572;2023-08-31T00:00:08;99143.27;;;17.87;100.00
60611;BME280;46439;51.164;13.572;2023-08-31T00:02:38;99147.30;;;17.89;100.00
60611;BME280;46439;51.164;13.572;2023-08-31T00:05:08;99155.34;;;17.85;100.00
60611;BME280;46439;51.164;13.572;2023-08-31T00:07:37;99153.95;;;17.82;100.00
60611;BME280;46439;51.164;13.572;2023-08-31T00:10:07;99156.15;;;17.82;100.00
60611;BME280;46439;51.164;13.572;2023-08-31T00:12:39;99152.55;;;17.82;100.00
60611;BME280;46439;51.164;13.572;2023-08-31T00:15:11;99159.44;;;17.77;100.00
60611;BME280;46439;51.164;13.572;2023-08-31T00:17:39;99159.72;;;17.77;100.00
60611;BME280;46439;51.164;13.572;2023-08-31T00:20:10;99163.34;;;17.75;100.00
60611;BME280;46439;51.164;13.572;2023-08-31T00:22:41;99167.16;;;17.72;100.00
60611;BME280;46439;51.164;13.572;2023-08-31T00:25:10;99161.85;;;17.69;100.00
60611;BME280;46439;51.164;13.572;2023-08-31T00:27:39;99159.84;;;17.66;100.00
60611;BME280;46439;51.164;13.572;2023-08-31T00:30:10;99156.73;;;17.63;100.00
60611;BME280;46439;51.164;13.572;2023-08-31T00:32:42;99147.38;;;17.62;100.00
60611;BME280;46439;51.164;13.572;2023-08-31T00:35:11;99146.17;;;17.65;100.00
60611;BME280;46439;51.164;13.572;2023-08-31T00:37:39;99144.99;;;17.69;100.00
60611;BME280;46439;51.164;13.572;2023-08-31T00:40:10;99145.79;;;17.68;100.00
60611;BME280;46439;51.164;13.572;2023-08-31T00:42:42;99146.92;;;17.64;100.00
60611;BME280;46439;51.164;13.572;2023-08-31T00:45:11;99142.95;;;17.59;100.00
60611;BME280;46439;51.164;13.572;2023-08-31T00:47:39;99138.38;;;17.59;100.00
60611;BME280;46439;51.164;13.572;2023-08-31T00:50:10;99136.33;;;17.61;100.00
60611;BME280;46439;51.164;13.572;2023-08-31T00:52:39;99133.27;;;17.62;100.00
60611;BME280;46439;51.164;13.572;2023-08-31T00:55:08;99132.91;;;17.56;100.00
60611;BME280;46439;51.164;13.572;2023-08-31T00:57:37;99130.52;;;17.60;100.00
60611;BME280;46439;51.164;13.572;2023-08-31T01:00:07;99132.64;;;17.65;100.00
60611;BME280;46439;51.164;13.572;2023-08-31T01:02:40;99135.45;;;17.70;100.00
60611;BME280;46439;51.164;13.572;2023-08-31T01:05:17;99138.06;;;17.79;100.00
60611;BME280;46439;51.164;13.572;2023-08-31T01:07:56;99136.90;;;17.83;100.00
60611;BME280;46439;51.164;13.572;2023-08-31T01:10:29;99128.83;;;17.84;100.00
60611;BME280;46439;51.164;13.572;2023-08-31T01:13:03;99118.63;;;17.82;100.00
60611;BME280;46439;51.164;13.572;2023-08-31T01:15:33;99121.20;;;17.79;100.00
60611;BME280;46439;51.164;13.572;2023-08-31T01:18:04;99122.01;;;17.78;100.00
60611;BME280;46439;51.164;13.572;2023-08-31T01:20:42;99119.19;;;17.70;100.00
60611;BME280;46439;51.164;13.572;2023-08-31T01:23:18;99113.10;;;17.65;100.00
60611;BME280;46439;51.164;13.572;2023-08-31T01:25:47;99113.04;;;17.64;100.00
60611;BME280;46439;51.164;13.572;2023-08-31T01:28:16;99103.66;;;17.72;100.00
60611;BME280;46439;51.164;13.572;2023-08-31T01:30:45;99103.71;;;17.75;100.00
60611;BME280;46439;51.164;13.572;2023-08-31T01:33:13;99107.25;;;17.78;100.00
60611;BME280;46439;51.164;13.572;2023-08-31T01:35:45;99110.11;;;17.81;100.00
60611;BME280;46439;51.164;13.572;2023-08-31T01:38:13;99111.89;;;17.85;100.00
60611;BME280;46439;51.164;13.572;2023-08-31T01:40:49;99123.95;;;17.85;100.00
60611;BME280;46439;51.164;13.572;2023-08-31T01:43:23;99133.30;;;17.78;100.00
60611;BME280;46439;51.164;13.572;2023-08-31T01:45:52;99136.71;;;17.73;100.00
60611;BME280;46439;51.164;13.572;2023-08-31T01:48:20;99135.34;;;17.79;100.00
60611;BME280;46439;51.164;13.572;2023-08-31T01:50:49;99123.25;;;17.84;100.00
60611;BME280;46439;51.164;13.572;2023-08-31T01:53:17;99120.05;;;17.87;100.00
60611;BME280;46439;51.164;13.572;2023-08-31T01:55:46;99119.57;;;17.85;100.00
60611;BME280;46439;51.164;13.572;2023-08-31T01:58:14;99125.45;;;17.83;100.00
60611;BME280;46439;51.164;13.572;2023-08-31T02:00:43;99134.33;;;17.88;100.00
60611;BME280;46439;51.164;13.572;2023-08-31T02:03:12;99136.73;;;17.92;100.00
60611;BME280;46439;51.164;13.572;2023-08-31T02:05:41;99144.55;;;17.92;100.00
60611;BME280;46439;51.164;13.572;2023-08-31T02:08:09;99143.70;;;17.84;100.00
60611;BME280;46439;51.164;13.572;2023-08-31T02:10:38;99142.10;;;17.69;100.00
60611;BME280;46439;51.164;13.572;2023-08-31T02:13:06;99141.67;;;17.64;100.00
60611;BME280;46439;51.164;13.572;2023-08-31T02:15:37;99147.11;;;17.57;100.00
60611;BME280;46439;51.164;13.572;2023-08-31T02:18:07;99160.02;;;17.55;100.00
60611;BME280;46439;51.164;13.572;2023-08-31T02:20:35;99164.67;;;17.53;100.00
60611;BME280;46439;51.164;13.572;2023-08-31T02:23:04;99163.67;;;17.41;100.00
60611;BME280;46439;51.164;13.572;2023-08-31T02:25:33;99158.63;;;17.45;100.00
60611;BME280;46439;51.164;13.572;2023-08-31T02:28:02;99160.06;;;17.38;100.00
60611;BME280;46439;51.164;13.572;2023-08-31T02:30:30;99161.55;;;17.33;100.00
60611;BME280;46439;51.164;13.572;2023-08-31T02:32:59;99162.07;;;17.18;100.00
60611;BME280;46439;51.164;13.572;2023-08-31T02:35:28;99160.66;;;17.04;100.00
60611;BME280;46439;51.164;13.572;2023-08-31T02:37:56;99162.84;;;17.02;100.00
60611;BME280;46439;51.164;13.572;2023-08-31T02:40:25;99165.08;;;17.00;100.00
60611;BME280;46439;51.164;13.572;2023-08-31T02:42:53;99166.23;;;16.96;100.00
60611;BME280;46439;51.164;13.572;2023-08-31T02:45:22;99162.05;;;16.91;100.00
60611;BME280;46439;51.164;13.572;2023-08-31T02:47:50;99167.85;;;16.86;100.00
60611;BME280;46439;51.164;13.572;2023-08-31T02:50:19;99177.71;;;16.82;100.00
60611;BME280;46439;51.164;13.572;2023-08-31T02:52:48;99188.14;;;16.79;100.00
60611;BME280;46439;51.164;13.572;2023-08-31T02:55:17;99190.60;;;16.74;100.00
60611;BME280;46439;51.164;13.572;2023-08-31T02:57:45;99195.61;;;16.69;100.00
60611;BME280;46439;51.164;13.572;2023-08-31T03:00:15;99196.81;;;16.60;100.00
60611;BME280;46439;51.164;13.572;2023-08-31T03:02:44;99195.15;;;16.57;100.00
60611;BME280;46439;51.164;13.572;2023-08-31T03:05:13;99193.66;;;16.58;100.00
60611;BME280;46439;51.164;13.572;2023-08-31T03:07:42;99200.52;;;16.64;100.00
60611;BME280;46439;51.164;13.572;2023-08-31T03:10:11;99202.41;;;16.63;100.00
60611;BME280;46439;51.164;13.572;2023-08-31T03:12:40;99197.09;;;16.63;100.00
60611;BME280;46439;51.164;13.572;2023-08-31T03:15:09;99198.29;;;16.60;100.00
60611;BME280;46439;51.164;13.572;2023-08-31T03:17:38;99192.98;;;16.56;100.00
60611;BME280;46439;51.164;13.572;2023-08-31T03:20:08;99193.05;;;16.57;100.00
60611;BME280;46439;51.164;13.572;2023-08-31T03:22:38;99193.73;;;16.54;100.00
60611;BME280;46439;51.164;13.572;2023-08-31T03:25:13;99192.92;;;16.50;100.00
60611;BME280;46439;51.164;13.572;2023-08-31T03:27:41;99193.64;;;16.47;100.00
60611;BME280;46439;51.164;13.572;2023-08-31T03:30:12;99194.50;;;16.43;100.00
60611;BME280;46439;51.164;13.572;2023-08-31T03:32:41;99197.52;;;16.34;100.00
60611;BME280;46439;51.164;13.572;2023-08-31T03:35:11;99199.14;;;16.31;100.00
60611;BME280;46439;51.164;13.572;2023-08-31T03:37:40;99202.13;;;16.33;100.00
60611;BME280;46439;51.164;13.572;2023-08-31T03:40:09;99204.84;;;16.29;100.00
60611;BME280;46439;51.164;13.572;2023-08-31T03:42:38;99209.38;;;16.28;100.00
60611;BME280;46439;51.164;13.572;2023-08-31T03:45:08;99211.73;;;16.30;100.00
60611;BME280;46439;51.164;13.572;2023-08-31T03:47:37;99214.89;;;16.34;100.00
60611;BME280;46439;51.164;13.572;2023-08-31T03:50:07;99222.44;;;16.33;100.00
60611;BME280;46439;51.164;13.572;2023-08-31T03:52:36;99226.75;;;16.29;100.00
60611;BME280;46439;51.164;13.572;2023-08-31T03:55:06;99225.27;;;16.20;100.00
60611;BME280;46439;51.164;13.572;2023-08-31T03:57:34;99224.17;;;16.18;100.00
60611;BME280;46439;51.164;13.572;2023-08-31T04:00:04;99222.96;;;16.17;100.00
60611;BME280;46439;51.164;13.572;2023-08-31T04:02:41;99217.67;;;16.15;100.00
60611;BME280;46439;51.164;13.572;2023-08-31T04:05:10;99217.34;;;16.15;100.00
60611;BME280;46439;51.164;13.572;2023-08-31T04:07:38;99215.50;;;16.15;100.00
60611;BME280;46439;51.164;13.572;2023-08-31T04:10:08;99218.08;;;16.18;100.00
60611;BME280;46439;51.164;13.572;2023-08-31T04:12:37;99217.42;;;16.20;100.00
60611;BME280;46439;51.164;13.572;2023-08-31T04:15:08;99217.09;;;16.17;100.00
60611;BME280;46439;51.164;13.572;2023-08-31T04:17:37;99223.75;;;16.20;100.00
60611;BME280;46439;51.164;13.572;2023-08-31T04:20:07;99222.33;;;16.20;100.00
60611;BME280;46439;51.164;13.572;2023-08-31T04:22:37;99225.08;;;16.19;100.00
60611;BME280;46439;51.164;13.572;2023-08-31T04:25:06;99229.27;;;16.21;100.00
60611;BME280;46439;51.164;13.572;2023-08-31T04:27:34;99230.71;;;16.20;100.00
60611;BME280;46439;51.164;13.572;2023-08-31T04:30:06;99232.30;;;16.25;100.00
60611;BME280;46439;51.164;13.572;2023-08-31T04:32:35;99234.94;;;16.28;100.00
60611;BME280;46439;51.164;13.572;2023-08-31T04:35:05;99236.75;;;16.25;100.00
60611;BME280;46439;51.164;13.572;2023-08-31T04:37:34;99242.00;;;16.21;100.00
60611;BME280;46439;51.164;13.572;2023-08-31T04:40:04;99246.54;;;16.19;100.00
60611;BME280;46439;51.164;13.572;2023-08-31T04:42:33;99248.19;;;16.20;100.00
60611;BME280;46439;51.164;13.572;2023-08-31T04:45:03;99250.90;;;16.17;100.00
60611;BME280;46439;51.164;13.572;2023-08-31T04:47:31;99251.52;;;16.16;100.00
60611;BME280;46439;51.164;13.572;2023-08-31T04:50:01;99256.19;;;16.11;100.00
60611;BME280;46439;51.164;13.572;2023-08-31T04:52:29;99257.34;;;16.03;100.00
60611;BME280;46439;51.164;13.572;2023-08-31T04:54:57;99262.69;;;15.95;100.00
60611;BME280;46439;51.164;13.572;2023-08-31T04:57:26;99264.70;;;15.98;100.00
60611;BME280;46439;51.164;13.572;2023-08-31T04:59:55;99270.33;;;15.94;100.00
60611;BME280;46439;51.164;13.572;2023-08-31T05:02:23;99274.13;;;15.98;100.00
60611;BME280;46439;51.164;13.572;2023-08-31T05:04:52;99275.43;;;16.10;100.00
60611;BME280;46439;51.164;13.572;2023-08-31T05:07:20;99279.48;;;16.10;100.00
60611;BME280;46439;51.164;13.572;2023-08-31T05:09:49;99285.15;;;16.15;100.00
60611;BME280;46439;51.164;13.572;2023-08-31T05:12:18;99290.69;;;16.12;100.00
60611;BME280;46439;51.164;13.572;2023-08-31T05:14:47;99292.08;;;16.17;100.00
60611;BME280;46439;51.164;13.572;2023-08-31T05:17:15;99292.48;;;16.22;100.00
60611;BME280;46439;51.164;13.572;2023-08-31T05:19:44;99297.73;;;16.23;100.00
60611;BME280;46439;51.164;13.572;2023-08-31T05:22:12;99300.40;;;16.21;100.00
60611;BME280;46439;51.164;13.572;2023-08-31T05:24:41;99304.11;;;16.23;100.00
60611;BME280;46439;51.164;13.572;2023-08-31T05:27:09;99309.13;;;16.24;100.00
60611;BME280;46439;51.164;13.572;2023-08-31T05:29:38;99313.60;;;16.24;100.00
60611;BME280;46439;51.164;13.572;2023-08-31T05:32:07;99321.02;;;16.15;100.00
60611;BME280;46439;51.164;13.572;2023-08-31T05:34:36;99324.10;;;16.19;100.00
60611;BME280;46439;51.164;13.572;2023-08-31T05:37:07;99328.19;;;16.20;100.00
60611;BME280;46439;51.164;13.572;2023-08-31T05:39:36;99325.71;;;16.29;100.00
60611;BME280;46439;51.164;13.572;2023-08-31T05:42:05;99326.22;;;16.21;100.00
60611;BME280;46439;51.164;13.572;2023-08-31T05:44:34;99325.58;;;16.27;100.00
60611;BME280;46439;51.164;13.572;2023-08-31T05:47:02;99331.81;;;16.33;100.00
60611;BME280;46439;51.164;13.572;2023-08-31T05:49:31;99329.63;;;16.35;100.00
60611;BME280;46439;51.164;13.572;2023-08-31T05:52:01;99328.54;;;16.39;100.00
60611;BME280;46439;51.164;13.572;2023-08-31T05:54:30;99326.52;;;16.41;100.00
60611;BME280;46439;51.164;13.572;2023-08-31T05:56:58;99330.45;;;16.43;100.00
60611;BME280;46439;51.164;13.572;2023-08-31T05:59:27;99324.52;;;16.37;100.00
60611;BME280;46439;51.164;13.572;2023-08-31T06:01:55;99327.05;;;16.41;100.00
60611;BME280;46439;51.164;13.572;2023-08-31T06:04:23;99324.71;;;16.47;100.00
60611;BME280;46439;51.164;13.572;2023-08-31T06:06:52;99323.50;;;16.44;100.00
60611;BME280;46439;51.164;13.572;2023-08-31T06:09:22;99323.02;;;16.45;100.00
60611;BME280;46439;51.164;13.572;2023-08-31T06:11:50;99327.33;;;16.51;100.00
60611;BME280;46439;51.164;13.572;2023-08-31T06:14:19;99329.02;;;16.45;100.00
60611;BME280;46439;51.164;13.572;2023-08-31T06:16:48;99325.11;;;16.45;100.00
60611;BME280;46439;51.164;13.572;2023-08-31T06:19:16;99328.42;;;16.47;100.00
60611;BME280;46439;51.164;13.572;2023-08-31T06:21:44;99333.78;;;16.59;100.00
60611;BME280;46439;51.164;13.572;2023-08-31T06:24:13;99333.12;;;16.64;100.00
60611;BME280;46439;51.164;13.572;2023-08-31T06:26:42;99337.45;;;16.63;100.00
60611;BME280;46439;51.164;13.572;2023-08-31T06:29:11;99339.86;;;16.70;100.00
60611;BME280;46439;51.164;13.572;2023-08-31T06:31:39;99343.15;;;16.80;100.00
60611;BME280;46439;51.164;13.572;2023-08-31T06:34:08;99344.98;;;16.79;100.00
60611;BME280;46439;51.164;13.572;2023-08-31T06:36:36;99351.61;;;16.80;100.00
60611;BME280;46439;51.164;13.572;2023-08-31T06:39:07;99354.02;;;16.81;100.00
60611;BME280;46439;51.164;13.572;2023-08-31T06:41:36;99352.73;;;16.75;100.00
60611;BME280;46439;51.164;13.572;2023-08-31T06:44:05;99357.53;;;16.83;100.00
60611;BME280;46439;51.164;13.572;2023-08-31T06:46:33;99361.60;;;16.86;100.00
60611;BME280;46439;51.164;13.572;2023-08-31T06:49:06;99358.68;;;16.85;100.00
60611;BME280;46439;51.164;13.572;2023-08-31T06:51:34;99363.73;;;16.79;100.00
60611;BME280;46439;51.164;13.572;2023-08-31T06:54:03;99367.27;;;16.81;100.00
60611;BME280;46439;51.164;13.572;2023-08-31T06:56:35;99369.79;;;16.81;100.00
60611;BME280;46439;51.164;13.572;2023-08-31T06:59:04;99373.30;;;16.82;100.00
60611;BME280;46439;51.164;13.572;2023-08-31T07:01:32;99371.25;;;16.82;100.00
60611;BME280;46439;51.164;13.572;2023-08-31T07:04:01;99368.98;;;16.82;100.00
60611;BME280;46439;51.164;13.572;2023-08-31T07:06:31;99373.17;;;16.83;100.00
60611;BME280;46439;51.164;13.572;2023-08-31T07:09:00;99369.05;;;16.82;100.00
60611;BME280;46439;51.164;13.572;2023-08-31T07:11:28;99373.44;;;16.83;100.00
60611;BME280;46439;51.164;13.572;2023-08-31T07:13:57;99372.89;;;16.88;100.00
60611;BME280;46439;51.164;13.572;2023-08-31T07:16:25;99371.74;;;16.97;100.00
60611;BME280;46439;51.164;13.572;2023-08-31T07:18:54;99376.23;;;17.02;100.00
60611;BME280;46439;51.164;13.572;2023-08-31T07:21:22;99378.80;;;17.09;100.00
60611;BME280;46439;51.164;13.572;2023-08-31T07:23:51;99381.15;;;17.07;100.00
60611;BME280;46439;51.164;13.572;2023-08-31T07:26:19;99386.29;;;17.03;100.00
60611;BME280;46439;51.164;13.572;2023-08-31T07:28:48;99390.14;;;17.09;100.00
60611;BME280;46439;51.164;13.572;2023-08-31T07:31:16;99395.33;;;17.12;100.00
60611;BME280;46439;51.164;13.572;2023-08-31T07:33:45;99394.03;;;17.19;100.00
60611;BME280;46439;51.164;13.572;2023-08-31T07:36:13;99404.17;;;17.25;100.00
60611;BME280;46439;51.164;13.572;2023-08-31T07:38:43;99409.60;;;17.31;100.00
60611;BME280;46439;51.164;13.572;2023-08-31T07:41:12;99407.65;;;17.21;100.00
60611;BME280;46439;51.164;13.572;2023-08-31T07:43:40;99410.27;;;17.22;100.00
60611;BME280;46439;51.164;13.572;2023-08-31T07:46:09;99409.82;;;17.31;100.00
60611;BME280;46439;51.164;13.572;2023-08-31T07:48:37;99414.27;;;17.39;100.00
60611;BME280;46439;51.164;13.572;2023-08-31T07:51:07;99413.52;;;17.45;100.00
60611;BME280;46439;51.164;13.572;2023-08-31T07:53:35;99414.77;;;17.50;100.00
60611;BME280;46439;51.164;13.572;2023-08-31T07:56:04;99413.07;;;17.56;100.00
60611;BME280;46439;51.164;13.572;2023-08-31T07:58:32;99407.46;;;17.69;100.00
60611;BME280;46439;51.164;13.572;2023-08-31T08:01:01;99414.45;;;17.71;100.00
60611;BME280;46439;51.164;13.572;2023-08-31T08:03:29;99414.59;;;17.76;100.00
60611;BME280;46439;51.164;13.572;2023-08-31T08:05:59;99414.79;;;17.82;100.00
60611;BME280;46439;51.164;13.572;2023-08-31T08:08:27;99413.84;;;17.86;100.00
60611;BME280;46439;51.164;13.572;2023-08-31T08:10:57;99417.86;;;17.96;100.00
60611;BME280;46439;51.164;13.572;2023-08-31T08:13:26;99415.03;;;18.07;100.00
60611;BME280;46439;51.164;13.572;2023-08-31T08:15:54;99418.66;;;18.08;100.00
60611;BME280;46439;51.164;13.572;2023-08-31T08:18:22;99417.43;;;18.15;100.00
60611;BME280;46439;51.164;13.572;2023-08-31T08:20:51;99417.65;;;18.26;100.00
60611;BME280;46439;51.164;13.572;2023-08-31T08:23:20;99417.55;;;18.43;100.00
60611;BME280;46439;51.164;13.572;2023-08-31T08:25:50;99421.49;;;18.57;100.00
60611;BME280;46439;51.164;13.572;2023-08-31T08:28:18;99418.77;;;18.73;100.00
60611;BME280;46439;51.164;13.572;2023-08-31T08:30:47;99427.52;;;18.83;100.00
60611;BME280;46439;51.164;13.572;2023-08-31T08:33:16;99419.41;;;18.91;100.00
60611;BME280;46439;51.164;13.572;2023-08-31T08:35:46;99419.84;;;19.00;100.00
60611;BME280;46439;51.164;13.572;2023-08-31T08:38:14;99416.92;;;19.10;100.00
60611;BME280;46439;51.164;13.572;2023-08-31T08:40:43;99417.48;;;19.23;100.00
60611;BME280;46439;51.164;13.572;2023-08-31T08:43:12;99421.16;;;19.35;100.00
60611;BME280;46439;51.164;13.572;2023-08-31T08:45:45;99425.10;;;19.42;100.00
60611;BME280;46439;51.164;13.572;2023-08-31T08:48:16;99424.63;;;19.43;100.00
60611;BME280;46439;51.164;13.572;2023-08-31T08:50:46;99430.64;;;19.46;100.00
60611;BME280;46439;51.164;13.572;2023-08-31T08:53:14;99435.94;;;19.52;100.00
60611;BME280;46439;51.164;13.572;2023-08-31T08:55:43;99440.80;;;19.48;100.00
60611;BME280;46439;51.164;13.572;2023-08-31T08:58:12;99438.31;;;19.39;100.00
60611;BME280;46439;51.164;13.572;2023-08-31T09:00:41;99432.31;;;19.43;100.00
60611;BME280;46439;51.164;13.572;2023-08-31T09:03:10;99430.50;;;19.58;100.00
60611;BME280;46439;51.164;13.572;2023-08-31T09:05:38;99427.86;;;19.69;100.00
60611;BME280;46439;51.164;13.572;2023-08-31T09:08:08;99433.53;;;19.83;100.00
60611;BME280;46439;51.164;13.572;2023-08-31T09:10:39;99433.59;;;19.84;100.00
60611;BME280;46439;51.164;13.572;2023-08-31T09:13:27;99437.31;;;19.80;100.00
60611;BME280;46439;51.164;13.572;2023-08-31T09:15:59;99433.77;;;19.77;100.00
60611;BME280;46439;51.164;13.572;2023-08-31T09:18:29;99436.77;;;19.82;100.00
60611;BME280;46439;51.164;13.572;2023-08-31T09:21:00;99435.80;;;19.90;100.00
60611;BME280;46439;51.164;13.572;2023-08-31T09:23:29;99440.36;;;19.98;100.00
60611;BME280;46439;51.164;13.572;2023-08-31T09:25:58;99439.91;;;20.02;100.00
60611;BME280;46439;51.164;13.572;2023-08-31T09:28:27;99438.66;;;19.99;100.00
60611;BME280;46439;51.164;13.572;2023-08-31T09:31:06;99441.90;;;19.95;100.00
60611;BME280;46439;51.164;13.572;2023-08-31T09:33:35;99445.97;;;19.80;100.00
60611;BME280;46439;51.164;13.572;2023-08-31T09:36:07;99447.93;;;19.71;100.00
60611;BME280;46439;51.164;13.572;2023-08-31T09:38:42;99446.54;;;19.69;100.00
60611;BME280;46439;51.164;13.572;2023-08-31T09:41:12;99445.81;;;19.68;100.00
60611;BME280;46439;51.164;13.572;2023-08-31T09:43:40;99449.10;;;19.64;100.00
60611;BME280;46439;51.164;13.572;2023-08-31T09:46:10;99451.15;;;19.59;100.00
60611;BME280;46439;51.164;13.572;2023-08-31T09:48:40;99450.98;;;19.59;100.00
60611;BME280;46439;51.164;13.572;2023-08-31T09:51:11;99454.94;;;19.63;100.00
60611;BME280;46439;51.164;13.572;2023-08-31T09:53:40;99456.98;;;19.67;100.00
60611;BME280;46439;51.164;13.572;2023-08-31T09:56:13;99455.15;;;19.79;100.00
60611;BME280;46439;51.164;13.572;2023-08-31T09:58:41;99459.29;;;19.81;100.00
60611;BME280;46439;51.164;13.572;2023-08-31T10:01:10;99455.75;;;19.83;100.00
60611;BME280;46439;51.164;13.572;2023-08-31T10:03:39;99458.40;;;19.80;100.00
60611;BME280;46439;51.164;13.572;2023-08-31T10:06:08;99460.73;;;19.75;100.00
60611;BME280;46439;51.164;13.572;2023-08-31T10:08:37;99455.15;;;19.67;100.00
60611;BME280;46439;51.164;13.572;2023-08-31T10:11:07;99454.09;;;19.75;100.00
60611;BME280;46439;51.164;13.572;2023-08-31T10:13:39;99458.30;;;19.85;100.00
60611;BME280;46439;51.164;13.572;2023-08-31T10:16:09;99453.74;;;19.91;100.00
60611;BME280;46439;51.164;13.572;2023-08-31T10:18:38;99459.98;;;19.94;100.00
60611;BME280;46439;51.164;13.572;2023-08-31T10:21:07;99451.80;;;20.02;100.00
60611;BME280;46439;51.164;13.572;2023-08-31T10:23:36;99451.13;;;20.17;100.00
60611;BME280;46439;51.164;13.572;2023-08-31T10:26:05;99457.22;;;20.27;100.00
60611;BME280;46439;51.164;13.572;2023-08-31T10:28:42;99451.73;;;20.30;100.00
60611;BME280;46439;51.164;13.572;2023-08-31T10:31:15;99451.79;;;20.31;100.00
60611;BME280;46439;51.164;13.572;2023-08-31T10:33:45;99446.91;;;20.27;100.00
60611;BME280;46439;51.164;13.572;2023-08-31T10:36:16;99442.02;;;20.26;100.00
60611;BME280;46439;51.164;13.572;2023-08-31T10:38:46;99444.35;;;20.27;100.00
60611;BME280;46439;51.164;13.572;2023-08-31T10:41:25;99446.06;;;20.33;100.00
60611;BME280;46439;51.164;13.572;2023-08-31T10:43:55;99449.09;;;20.40;100.00
60611;BME280;46439;51.164;13.572;2023-08-31T10:46:29;99460.34;;;20.44;100.00
60611;BME280;46439;51.164;13.572;2023-08-31T10:48:58;99463.66;;;20.46;100.00
60611;BME280;46439;51.164;13.572;2023-08-31T10:51:29;99464.41;;;20.42;100.00
60611;BME280;46439;51.164;13.572;2023-08-31T10:54:12;99462.89;;;20.33;100.00
60611;BME280;46439;51.164;13.572;2023-08-31T10:57:04;99487.20;;;20.22;100.00
60611;BME280;46439;51.164;13.572;2023-08-31T10:59:47;99512.15;;;19.85;100.00
60611;BME280;46439;51.164;13.572;2023-08-31T11:02:30;99526.11;;;19.30;100.00
60611;BME280;46439;51.164;13.572;2023-08-31T11:05:08;99544.95;;;18.74;100.00
60611;BME280;46439;51.164;13.572;2023-08-31T11:07:37;99547.61;;;18.31;100.00
60611;BME280;46439;51.164;13.572;2023-08-31T11:10:18;99561.95;;;17.97;100.00
60611;BME280;46439;51.164;13.572;2023-08-31T11:12:48;99564.39;;;17.61;100.00
60611;BME280;46439;51.164;13.572;2023-08-31T11:15:18;99569.73;;;17.33;100.00
60611;BME280;46439;51.164;13.572;2023-08-31T11:17:49;99564.91;;;17.10;100.00
60611;BME280;46439;51.164;13.572;2023-08-31T11:20:19;99556.14;;;16.88;100.00
60611;BME280;46439;51.164;13.572;2023-08-31T11:22:49;99531.39;;;16.74;100.00
60611;BME280;46439;51.164;13.572;2023-08-31T11:25:18;99515.10;;;16.68;100.00
60611;BME280;46439;51.164;13.572;2023-08-31T11:27:58;99506.90;;;16.67;100.00
60611;BME280;46439;51.164;13.572;2023-08-31T11:30:28;99503.33;;;16.74;100.00
60611;BME280;46439;51.164;13.572;2023-08-31T11:33:03;99509.25;;;16.91;100.00
60611;BME280;46439;51.164;13.572;2023-08-31T11:35:35;99506.11;;;17.05;100.00
60611;BME280;46439;51.164;13.572;2023-08-31T11:38:05;99511.96;;;17.23;100.00
60611;BME280;46439;51.164;13.572;2023-08-31T11:40:34;99509.23;;;17.34;100.00
60611;BME280;46439;51.164;13.572;2023-08-31T11:43:04;99504.44;;;17.46;100.00
60611;BME280;46439;51.164;13.572;2023-08-31T11:45:32;99503.77;;;17.58;100.00
60611;BME280;46439;51.164;13.572;2023-08-31T11:48:02;99504.34;;;17.70;100.00
60611;BME280;46439;51.164;13.572;2023-08-31T11:50:38;99499.95;;;17.84;100.00
60611;BME280;46439;51.164;13.572;2023-08-31T11:53:08;99497.42;;;18.03;100.00
60611;BME280;46439;51.164;13.572;2023-08-31T11:55:36;99492.95;;;18.18;100.00
60611;BME280;46439;51.164;13.572;2023-08-31T11:58:18;99495.07;;;18.33;100.00
60611;BME280;46439;51.164;13.572;2023-08-31T12:00:46;99499.37;;;18.43;100.00
60611;BME280;46439;51.164;13.572;2023-08-31T12:03:22;99499.83;;;18.60;100.00
60611;BME280;46439;51.164;13.572;2023-08-31T12:05:52;99490.64;;;18.77;100.00
60611;BME280;46439;51.164;13.572;2023-08-31T12:08:27;99485.23;;;18.90;100.00
60611;BME280;46439;51.164;13.572;2023-08-31T12:10:55;99487.71;;;19.03;100.00
60611;BME280;46439;51.164;13.572;2023-08-31T12:13:27;99483.37;;;19.20;100.00
60611;BME280;46439;51.164;13.572;2023-08-31T12:15:58;99479.30;;;19.35;100.00
60611;BME280;46439;51.164;13.572;2023-08-31T12:18:32;99473.42;;;19.41;100.00
60611;BME280;46439;51.164;13.572;2023-08-31T12:21:00;99472.91;;;19.53;100.00
60611;BME280;46439;51.164;13.572;2023-08-31T12:23:29;99465.59;;;19.61;100.00
60611;BME280;46439;51.164;13.572;2023-08-31T12:25:57;99459.90;;;19.66;100.00
60611;BME280;46439;51.164;13.572;2023-08-31T12:28:27;99461.56;;;19.70;100.00
60611;BME280;46439;51.164;13.572;2023-08-31T12:30:56;99462.60;;;19.76;100.00
60611;BME280;46439;51.164;13.572;2023-08-31T12:33:24;99463.27;;;19.87;100.00
60611;BME280;46439;51.164;13.572;2023-08-31T12:35:53;99464.27;;;19.96;100.00
60611;BME280;46439;51.164;13.572;2023-08-31T12:38:22;99463.66;;;20.11;100.00
60611;BME280;46439;51.164;13.572;2023-08-31T12:40:50;99463.20;;;20.14;100.00
60611;BME280;46439;51.164;13.572;2023-08-31T12:43:18;99461.41;;;20.33;100.00
60611;BME280;46439;51.164;13.572;2023-08-31T12:45:47;99459.21;;;20.41;100.00
60611;BME280;46439;51.164;13.572;2023-08-31T12:48:16;99454.11;;;20.46;100.00
60611;BME280;46439;51.164;13.572;2023-08-31T12:50:44;99454.79;;;20.53;100.00
60611;BME280;46439;51.164;13.572;2023-08-31T12:53:13;99456.70;;;20.65;100.00